METAR Data
IDs: Format: Raw Decoded Include TAF

Data at: 2019 UTC 19 May 2019

KOLZ 192015Z AUTO 30017KT 10SM OVC021 13/10 A2970 RMK AO2 PWINO
KOLZ 191955Z AUTO 29017KT 10SM OVC020 13/10 A2969 RMK AO2 PWINO
KOLZ 191935Z AUTO 29014G20KT 10SM OVC020 13/10 A2967 RMK AO2 PWINO
KOLZ 191915Z AUTO 30018KT 10SM OVC020 13/10 A2966 RMK AO2 PWINO
KOLZ 191855Z AUTO 29018KT 10SM OVC019 13/10 A2966 RMK AO2 PWINO
KOLZ 191835Z AUTO 29013G21KT 10SM OVC017 13/10 A2966 RMK AO2 PWINO
KOLZ 191815Z AUTO 29018KT 10SM OVC017 12/10 A2965 RMK AO2 PWINO
KOLZ 191755Z AUTO 28018G23KT 10SM OVC017 12/10 A2965 RMK AO2 PWINO
KOLZ 191735Z AUTO 27020G27KT 10SM BKN017 OVC022 12/10 A2963 RMK AO2 PWINO
KOLZ 191715Z AUTO 28019KT 10SM BKN015 BKN021 OVC030 12/11 A2963 RMK AO2 PWINO
KOLZ 191655Z AUTO 27018KT 10SM BKN015 OVC021 12/10 A2962 RMK AO2 PWINO
KOLZ 191635Z AUTO 28016KT 10SM BKN013 OVC020 11/10 A2962 RMK AO2 PWINO
KOLZ 191615Z AUTO 28017KT 10SM OVC013 11/10 A2961 RMK AO2 PWINO
KOLZ 191555Z AUTO 28015KT 10SM OVC013 11/10 A2960 RMK AO2 PWINO
KOLZ 191535Z AUTO 29014G19KT 10SM OVC012 11/10 A2959 RMK AO2 PWINO
KOLZ 191515Z AUTO 29014G19KT 10SM OVC011 10/10 A2957 RMK AO2 PWINO
KOLZ 191455Z AUTO 28019KT 10SM BKN008 BKN012 10/10 A2956 RMK AO2 PWINO
KOLZ 191435Z AUTO 27017KT 5SM BR BKN008 BKN012 10/10 A2955 RMK AO2 PWINO
KOLZ 191415Z AUTO 27017KT 6SM BR BKN006 10/10 A2954 RMK AO2 PWINO
KOLZ 191355Z AUTO 27016KT 3SM BR OVC005 10/10 A2954 RMK AO2 PWINO
KOLZ 191335Z AUTO 26015G21KT 9SM OVC005 10/10 A2953 RMK AO2 PWINO
KOLZ 191315Z AUTO 26013G20KT 1 3/4SM BR OVC004 10/10 A2951 RMK AO2 PWINO
KOLZ 191255Z AUTO 24016G21KT 1 3/4SM BR OVC003 10/10 A2951 RMK AO2 PWINO
KOLZ 191235Z AUTO 24013G19KT 1 3/4SM BR OVC003 10/10 A2950 RMK AO2 PWINO
KOLZ 191215Z AUTO 24015KT 1SM BR OVC003 11/11 A2949 RMK AO2 PWINO
KOLZ 191155Z AUTO 22017G22KT 1 3/4SM BR OVC003 11/11 A2949 RMK AO2 PWINO
KOLZ 191135Z AUTO 21020KT 9SM OVC003 12/12 A2949 RMK AO2 PWINO
KOLZ 191115Z AUTO 21019G28KT 10SM OVC004 13/13 A2947 RMK AO2 PWINO
KOLZ 191055Z AUTO 20019G25KT 10SM OVC004 14/14 A2946 RMK AO2 PWINO
KOLZ 191035Z AUTO 19018G24KT 10SM OVC004 15/15 A2946 RMK AO2 PWINO
KOLZ 191015Z AUTO 20017G25KT 10SM OVC006 15/15 A2946 RMK AO2 PWINO
KOLZ 190955Z AUTO 18014KT 10SM OVC007 15/15 A2945 RMK AO2 PWINO
KOLZ 190935Z AUTO 19014G21KT 10SM BKN006 BKN009 OVC014 15/15 A2946 RMK AO2 PWINO
KOLZ 190915Z AUTO 18019KT 10SM BKN010 OVC014 16/16 A2946 RMK AO2 PWINO
KOLZ 190855Z AUTO 17013G18KT 10SM SCT010 BKN014 OVC085 17/17 A2947 RMK AO2 PWINO
KOLZ 190835Z AUTO 17012G17KT 10SM SCT008 SCT019 BKN065 17/17 A2947 RMK AO2 PWINO
KOLZ 190815Z AUTO 16013G18KT 10SM OVC008 17/17 A2947 RMK AO2 PWINO
KOLZ 190755Z AUTO 17013KT 10SM OVC011 17/17 A2948 RMK AO2 PWINO
KOLZ 190735Z AUTO 16012KT 10SM BKN009 OVC013 17/18 A2948 RMK AO2 PWINO
KOLZ 190715Z AUTO 16012G18KT 10SM BKN009 OVC012 17/17 A2949 RMK AO2 PWINO
KOLZ 190655Z AUTO 12013KT 4SM BR SCT008 OVC013 17/17 A2950 RMK AO2 PWINO
KOLZ 190635Z AUTO 09013KT 8SM FEW006 BKN014 OVC019 17/17 A2951 RMK AO2 PWINO
KOLZ 190615Z AUTO 12009G19KT 10SM BKN005 BKN013 OVC022 16/16 A2952 RMK AO2 PWINO
KOLZ 190555Z AUTO 08015KT 6SM BR BKN005 OVC022 17/17 A2952 RMK AO2 PWINO
KOLZ 190535Z AUTO 08011G16KT 10SM OVC004 17/17 A2953 RMK AO2 PWINO
KOLZ 190515Z AUTO 07013KT 9SM BKN005 BKN010 OVC013 16/16 A2953 RMK AO2 PWINO
KOLZ 190455Z AUTO 06010G15KT 4SM BR SCT005 BKN013 OVC022 16/16 A2954 RMK AO2 PWINO
KOLZ 190435Z AUTO 07011KT 4SM BR FEW012 BKN023 OVC050 17/17 A2956 RMK AO2 PWINO
KOLZ 190415Z AUTO 06012KT 5SM BR FEW016 BKN036 OVC050 17/17 A2957 RMK AO2 PWINO
KOLZ 190355Z AUTO 06008KT 4SM BR FEW005 BKN017 OVC070 17/17 A2958 RMK AO2 PWINO
KOLZ 190335Z AUTO 04008KT 9SM FEW018 SCT035 BKN075 17/17 A2960 RMK AO2 PWINO
KOLZ 190315Z AUTO 02008KT 6SM BR SCT035 BKN060 OVC110 17/17 A2961 RMK AO2 PWINO
KOLZ 190255Z AUTO 03007KT 9SM FEW049 SCT065 BKN085 17/17 A2963 RMK AO2 PWINO
KOLZ 190235Z AUTO 02005KT 10SM FEW055 SCT085 BKN100 17/17 A2963 RMK AO2 PWINO
KOLZ 190215Z AUTO 07004KT 8SM BKN032 BKN075 OVC120 17/17 A2963 RMK AO2 PWINO
KOLZ 190155Z AUTO 18005KT 2 1/2SM BR SCT007 BKN027 OVC042 18/18 A2965 RMK AO2 PWINO
KOLZ 190135Z AUTO 19005G13KT 1 3/4SM BR BKN007 BKN017 OVC029 18/18 A2967 RMK AO2 PWINO
KOLZ 190115Z AUTO 23008G13KT 3SM BR SCT008 BKN014 OVC036 18/18 A2967 RMK AO2 PWINO
KOLZ 190055Z AUTO 21016KT 2SM BR SCT009 BKN030 OVC070 20/20 A2965 RMK AO2 PWINO
KOLZ 190035Z AUTO 17013G20KT 2SM BR FEW003 SCT031 BKN070 20/20 A2964 RMK AO2 PWINO
KOLZ 190015Z AUTO 19019KT 4SM BR FEW025 SCT031 BKN038 21/21 A2963 RMK AO2 PWINO
KOLZ 182355Z AUTO 17013G18KT 8SM SCT027 BKN065 OVC090 21/20 A2962 RMK AO2 PWINO
KOLZ 182335Z AUTO 16017KT 10SM BKN075 OVC090 22/20 A2963 RMK AO2 PWINO
KOLZ 182315Z AUTO 16014KT 10SM SCT080 BKN090 23/20 A2962 RMK AO2 PWINO
KOLZ 182255Z AUTO 16012KT 10SM SCT095 24/20 A2961 RMK AO2 PWINO
KOLZ 182235Z AUTO 19015G21KT 10SM FEW095 25/20 A2962 RMK AO2 PWINO
KOLZ 182215Z AUTO 17016KT 10SM FEW080 FEW095 25/20 A2960 RMK AO2 PWINO
KOLZ 182155Z AUTO 17016KT 10SM SCT075 BKN090 25/20 A2962 RMK AO2 PWINO
KOLZ 182135Z AUTO 18020KT 10SM SCT070 SCT085 26/20 A2963 RMK AO2 PWINO
KOLZ 182115Z AUTO 18018KT 10SM FEW026 26/20 A2963 RMK AO2 PWINO
KOLZ 182055Z AUTO 18016KT 10SM SCT025 BKN070 25/20 A2963 RMK AO2 PWINO
KOLZ 182035Z AUTO 17016G21KT 10SM FEW026 FEW032 BKN070 25/20 A2965 RMK AO2 PWINO
KOLZ 182015Z AUTO 18019G24KT 10SM SCT027 25/20 A2964 RMK AO2 PWINO
KOLZ 181955Z AUTO 18017G23KT 10SM FEW029 26/20 A2963 RMK AO2 PWINO
KOLZ 181935Z AUTO 16015G23KT 10SM CLR 26/20 A2962 RMK AO2 PWINO
KOLZ 181915Z AUTO 19016KT 10SM CLR 25/20 A2962 RMK AO2 PWINO
KOLZ 181855Z AUTO 17018KT 10SM CLR 25/20 A2962 RMK AO2 PWINO
KOLZ 181835Z AUTO 16015G22KT 10SM CLR 25/20 A2961 RMK AO2 PWINO
KOLZ 181815Z AUTO 16015G21KT 10SM CLR 24/20 A2961 RMK AO2 PWINO
KOLZ 181755Z AUTO 16014G21KT 10SM FEW015 23/20 A2962 RMK AO2 PWINO
KOLZ 181735Z AUTO 14014G21KT 10SM FEW013 22/19 A2963 RMK AO2 PWINO
KOLZ 181715Z AUTO 15017G22KT 10SM FEW013 FEW120 20/18 A2963 RMK AO2 PWINO
KOLZ 181655Z AUTO 14017G22KT 10SM FEW012 FEW120 20/18 A2962 RMK AO2 PWINO
KOLZ 181635Z AUTO 13015KT 10SM CLR 18/17 A2962 RMK AO2 PWINO
KOLZ 181615Z AUTO 13018KT 10SM FEW007 16/16 A2960 RMK AO2 PWINO
KOLZ 181555Z AUTO 14016KT 10SM SCT007 16/15 A2964 RMK AO2 PWINO
KOLZ 181535Z AUTO 14018KT 10SM CLR 14/14 A2965 RMK AO2 PWINO
KOLZ 181515Z AUTO 14015KT 10SM FEW014 SCT100 13/13 A2967 RMK AO2 PWINO
KOLZ 181455Z AUTO 15013KT 10SM FEW120 13/13 A2970 RMK AO2 PWINO
KOLZ 181435Z AUTO 14012KT 10SM FEW120 12/12 A2970 RMK AO2 PWINO
KOLZ 181415Z AUTO 14014KT 7SM CLR 11/11 A2971 RMK AO2 PWINO
KOLZ 181355Z AUTO 14010G15KT 10SM FEW110 11/11 A2970 RMK AO2 PWINO
KOLZ 181335Z AUTO 14011KT 10SM FEW110 12/11 A2970 RMK AO2 PWINO
KOLZ 181315Z AUTO 14011KT 7SM FEW055 SCT120 10/10 A2970 RMK AO2 PWINO
KOLZ 181255Z AUTO 13013KT 10SM SCT035 SCT055 SCT080 10/10 A2971 RMK AO2 PWINO
KOLZ 181235Z AUTO 13012KT 9SM SCT034 BKN040 OVC050 10/09 A2971 RMK AO2 PWINO
KOLZ 181215Z AUTO 12013KT 9SM SCT042 BKN049 OVC070 10/08 A2971 RMK AO2 PWINO
KOLZ 181155Z AUTO 12013KT 10SM SCT043 BKN050 OVC085 10/07 A2972 RMK AO2 PWINO
KOLZ 181135Z AUTO 12017KT 10SM BKN070 BKN080 OVC140 09/07 A2972 RMK AO2 PWINO
KOLZ 181115Z AUTO 12016G21KT 10SM SCT075 SCT140 BKN180 09/07 A2972 RMK AO2 PWINO
KOLZ 181055Z AUTO 12016KT 10SM FEW150 SCT170 SCT190 09/06 A2973 RMK AO2 PWINO
KOLZ 181035Z AUTO 11018KT 10SM BKN140 BKN160 OVC180 09/06 A2973 RMK AO2 PWINO
KOLZ 181015Z AUTO 12017G23KT 10SM FEW065 SCT140 OVC160 09/06 A2974 RMK AO2 PWINO
KOLZ 180955Z AUTO 11017KT 10SM BKN065 OVC160 09/06 A2975 RMK AO2 PWINO
KOLZ 180935Z AUTO 11014KT 10SM BKN070 OVC160 09/06 A2975 RMK AO2 PWINO
KOLZ 180915Z AUTO 10015G21KT 10SM OVC070 09/06 A2975 RMK AO2 PWINO
KOLZ 180855Z AUTO 10014G19KT 10SM BKN065 BKN200 09/06 A2976 RMK AO2 PWINO
KOLZ 180835Z AUTO 11015G20KT 10SM SCT200 09/06 A2977 RMK AO2 PWINO